Airfield :
LOGIN :

Register | Disclaimer

   EN    FR    IT 

 










Legend :    VFR   Marginal VFR   IFR   Intensive IFR   Very Intensive IFR
Visi :
Ceiling :
>= 8 km
>= 3000ft
5 to 8 km
1000 to 3000 ft
1500m to 5 km
500 to 1000 ft
800 to 1500m
200 to 500 ft
< 800m
< 200 ft
Symbols :   Thunderstorms  Fog  Heavy snow  Heavy precipitations  Wind > 20 kt
SIGMETs :     Misc.  Thunderstorms  Icing  Turbulence  Mountain Waves  Volcanic Ashes






- Airport Elevation : 141 ft
- IATA code : SKS


EKSP - Srydstrup Vojens

CURRENT METAR :
  • 070950Z 21017KT 9999 FEW009 BKN011 BKN018 13/11 Q1017 TEMPO 22020G32KT 7000 -SHRA BKN014TCU

EXPIRED METARs :
  • 070920Z 20014KT 9999 FEW009 BKN011 BKN018 13/11 Q1018 TEMPO 21015G25KT 7000 -SHRA BKN014TCU
  • 070850Z 20014KT 9999 FEW009 BKN010 BKN015 12/10 Q1018 TEMPO 21015G25KT 7000 -SHRA BKN008 SCT020TCU
  • 070820Z 20013KT 9999 FEW009 BKN011 12/10 Q1018 TEMPO 21015G25KT 7000 -SHRA BKN008 SCT020TCU
  • 070750Z 20014KT 9999 FEW009 BKN010 13/11 Q1018 TEMPO 21015G25KT 7000 -SHRA BKN008 SCT020TCU
  • 070720Z 21014KT 9999 SCT009 BKN013 12/11 Q1019 TEMPO 21015G25KT 7000 -SHRA BKN008 SCT020TCU

TAF TAF EKSP
Valid from the 07 at 09:00 until the 08 at 09:00 UTC


070819Z 0709/0809 21015G25KT 9999 SCT010 BKN020
TEMPO 0709/0719 22020G32KT 7000 -SHRA BKN014TCU
BECMG 0720/0723 22020G35KT 3000 RA BKN008 SCT020CB
BECMG 0723/0801 23012KT 9999 NSW SCT020
TEMPO 0801/0809 25012G22KT 4000 SHRA BKN010 SCT020CB



MET'MAP, your aeronautical weather chart ! - Copyright ORBIFLY December 2007 - Disclaimer

ORBIFLY MET'MAP TEAM :

Programming & Development : Alexandra Zaïnal
Original concept : Baudouin d'Aumeries
Technical & hardware support : Manuel Goepfert
Assistance : Marc-Olivier Méhu




SOURCES & CREDITS :

   NOAA